Portada
METAR-TAF:

METAR-TAF

Aeropuertos :

El Aaiún, Marruecos

Aeropuerto Internacional Hassan I

latitud: 27-10N, longitud: 013-12-59W, altitud: 6 m

Observación

El informe se hizo hace 44 minutos, a las 06:00 UTC
Viento 8 kt del norte-noreste
Temperatura 14°C
Humedad 72%
Presión 1023 hPa
Visibilidad 10 km o más
Nubes dispersas a una altura de 2000 ft

METAR: GMML 190600Z 02008KT 9999 SCT020 14/09 Q1023 NOSIG

Hora: 06:44 (06:44 UTC)

Pronóstico

El informe se hizo hace 1 hora y 44 minutos, a las 05:00 UTC
Pronóstico válido del 19 a las 06 UTC al 20 a las 12 UTC
Viento 9 kt del noreste
Visibilidad 10 km o más
Nubes dispersas a una altura de 2000 ft

TAF: GMML 190500Z 1906/2012 04009KT 9999 SCT020

Observaciones y pronósticos meteorológicos de más de 4000 aeropuertos (mensajes METAR y TAF).

Los puntos amarillos y rojos representan las estaciones disponibles.

Ponga el ratón en el punto deseado para ver el nombre de la estación.

Haga clic para ver las observaciones y los pronósticos meteorológicos.

Para cambiar el mapa : haga clic en los botones verdes con una cruz de color negro para hacer un zoom, en el botón verde con un guión para alejar o en las flechas verdes para mapas adyacentes.


METAR-TAF: